Data for 06/03/2008

Time Sea-Level Adjusted Pressure Absolute Pressure Temperature Relative Humidity Dew Point   
(mb) (inHg) (mb) (inHg) (C) (F) (%) (C) (F)
00:05 1015 29.97 844 24.92 6.4 43.5 93 5.4 41.7
00:10 1015 29.97 844 24.92 6.4 43.5 94 5.4 41.7
00:15 1015 29.97 844 24.92 6.4 43.6 94 5.5 41.9
00:20 1015 29.97 844 24.92 6.5 43.7 94 5.5 42
00:25 1015 29.97 844 24.92 6.5 43.7 94 5.6 42
00:30 1015 29.97 844 24.92 6.5 43.7 94 5.6 42.2
00:35 1015 29.97 844 24.92 6.6 43.8 94 5.7 42.3
00:40 1015 29.97 844 24.92 6.6 43.8 94 5.7 42.3
00:45 1015 29.97 844 24.92 6.5 43.7 94 5.6 42
00:50 1015 29.97 844 24.92 6.6 43.8 93 5.6 42.1
00:55 1014 29.94 844 24.92 6.6 43.9 93 5.6 42.1
01:00 1014 29.94 844 24.92 6.6 43.9 93 5.6 42
01:05 1014 29.94 844 24.92 6.6 44 93 5.6 42.1
01:10 1014 29.94 844 24.92 6.7 44.1 93 5.6 42.1
01:15 1014 29.94 843 24.89 6.8 44.3 92 5.7 42.2
01:20 1014 29.94 844 24.92 6.7 44 93 5.6 42
01:25 1014 29.94 844 24.92 6.4 43.6 93 5.4 41.7
01:30 1014 29.94 843 24.89 6.3 43.4 94 5.4 41.7
01:35 1014 29.94 843 24.89 6.4 43.6 94 5.5 41.9
01:40 1014 29.94 843 24.89 6.4 43.6 94 5.6 42
01:45 1014 29.94 843 24.89 6.5 43.6 94 5.6 42
01:50 1014 29.94 843 24.89 6.6 43.8 93 5.5 42
01:55 1014 29.94 843 24.89 6.7 44 92 5.5 42
02:00 1014 29.94 843 24.89 6.7 44 92 5.5 41.8
02:05 1014 29.94 843 24.89 6.7 44 91 5.4 41.7
02:10 1014 29.94 843 24.89 6.7 44 91 5.3 41.6
02:15 1014 29.94 843 24.89 6.6 43.9 91 5.3 41.6
02:20 1014 29.94 843 24.89 6.5 43.7 91 5.2 41.4
02:25 1014 29.94 843 24.89 6.5 43.7 91 5.2 41.3
02:30 1014 29.94 843 24.89 6.5 43.7 92 5.2 41.4
02:35 1014 29.94 843 24.89 6.5 43.6 92 5.3 41.5
02:40 1014 29.94 843 24.89 6.4 43.4 93 5.3 41.5
02:45 1014 29.94 843 24.89 6.3 43.4 93 5.3 41.5
02:50 1014 29.94 843 24.89 6 42.9 94 5.1 41.2
02:55 1014 29.94 843 24.89 6.1 43 94 5.2 41.3
03:00 1014 29.94 843 24.89 6.2 43.2 94 5.3 41.5
03:05 1013 29.91 843 24.89 6.4 43.5 93 5.4 41.7
03:10 1013 29.91 843 24.89 6.5 43.7 93 5.5 41.9
03:15 1013 29.91 843 24.89 6.5 43.7 93 5.5 41.8
03:20 1013 29.91 843 24.89 6.3 43.4 93 5.3 41.5
03:25 1013 29.91 842 24.86 6.2 43.1 93 5.2 41.3
03:30 1013 29.91 842 24.86 6.3 43.3 93 5.3 41.5
03:35 1013 29.91 842 24.86 6.4 43.4 93 5.4 41.6
03:40 1013 29.91 842 24.86 6.3 43.3 94 5.3 41.6
03:45 1013 29.91 842 24.86 6.2 43.2 93 5.3 41.5
03:50 1013 29.91 842 24.86 6.3 43.4 93 5.3 41.5
03:55 1013 29.91 842 24.86 6.3 43.3 93 5.2 41.4
04:00 1013 29.91 842 24.86 6.2 43.2 92 5.1 41.1
04:05 1013 29.91 842 24.86 6.1 42.9 92 4.9 40.8
04:10 1013 29.91 842 24.86 6.1 43 92 4.9 40.9
04:15 1013 29.91 842 24.86 6.1 43 92 4.9 40.9
04:20 1013 29.91 842 24.86 6.1 43 90 4.7 40.4
04:25 1013 29.91 842 24.86 6.2 43.2 89 4.6 40.2
04:30 1013 29.91 842 24.86 6.2 43.2 88 4.4 40
04:35 1013 29.91 842 24.86 6.3 43.3 88 4.4 40
04:40 1013 29.91 842 24.86 6.4 43.5 87 4.4 39.9
04:45 1013 29.91 842 24.86 6.4 43.5 87 4.4 39.9
04:50 1013 29.91 842 24.86 6.3 43.3 87 4.4 39.9
04:55 1013 29.91 842 24.86 6.3 43.3 88 4.4 40
05:00 1013 29.91 842 24.86 6.2 43.2 89 4.5 40.1
05:05 1013 29.91 842 24.86 6 42.8 90 4.5 40.1
05:10 1013 29.91 842 24.86 5.8 42.4 91 4.4 40
05:15 1013 29.91 842 24.86 5.9 42.6 91 4.6 40.3
05:20 1013 29.91 842 24.86 6 42.8 91 4.7 40.5
05:25 1013 29.91 842 24.86 6.1 43 91 4.7 40.5
05:30 1013 29.91 842 24.86 6.2 43.2 89 4.6 40.3
05:35 1013 29.91 842 24.86 6.4 43.6 88 4.6 40.2
05:40 1013 29.91 842 24.86 6.6 43.9 87 4.7 40.4
05:45 1013 29.91 842 24.86 6.6 43.8 86 4.4 40
05:50 1013 29.91 842 24.86 6.5 43.7 86 4.3 39.8
05:55 1013 29.91 842 24.86 6.5 43.7 85 4.2 39.6
06:00 1013 29.91 842 24.86 6.7 44 85 4.3 39.7
06:05 1013 29.91 842 24.86 7 44.5 83 4.3 39.8
06:10 1013 29.91 842 24.86 7 44.6 83 4.3 39.8
06:15 1013 29.91 842 24.86 6.6 43.9 84 4.1 39.3
06:20 1013 29.91 842 24.86 6.5 43.7 84 4 39.3
06:25 1013 29.91 842 24.86 6.7 44 84 4.2 39.5
06:30 1013 29.91 842 24.86 6.8 44.3 84 4.3 39.7
06:35 1013 29.91 842 24.86 6.9 44.5 83 4.3 39.8
06:40 1013 29.91 842 24.86 7 44.7 83 4.3 39.8
06:45 1013 29.91 842 24.86 7.2 44.9 83 4.4 40
06:50 1013 29.91 842 24.86 7.3 45.2 82 4.5 40.2
06:55 1013 29.91 842 24.86 7.3 45.1 83 4.5 40.2
07:00 1013 29.91 842 24.86 7.2 44.9 83 4.5 40
07:05 1013 29.91 842 24.86 7.4 45.3 81 4.3 39.7
07:10 1013 29.91 842 24.86 7.3 45.2 82 4.4 39.9
07:15 1013 29.91 842 24.86 7.2 45 81 4.2 39.6
07:20 1013 29.91 842 24.86 7.3 45.1 81 4.3 39.7
07:25 1013 29.91 842 24.86 7.4 45.2 82 4.4 40
07:30 1013 29.91 842 24.86 7.7 45.9 81 4.6 40.2
07:35 1013 29.91 842 24.86 8.1 46.6 79 4.7 40.4
07:40 1013 29.91 842 24.86 8.3 46.9 79 4.9 40.8
07:45 1013 29.91 842 24.86 9 48.2 76 5.1 41.1
07:50 1013 29.91 842 24.86 9.3 48.7 76 5.2 41.3
07:55 1013 29.91 842 24.86 9.4 48.9 72 4.7 40.4
08:00 1013 29.91 842 24.86 9.5 49.1 71 4.5 40
08:05 1013 29.91 842 24.86 9.3 48.7 69 3.9 39
08:10 1013 29.91 842 24.86 9.1 48.3 70 3.9 39
08:15 1013 29.91 842 24.86 9.3 48.7 70 4.1 39.3
08:20 1013 29.91 842 24.86 9.8 49.6 67 3.9 39.1
08:25 1013 29.91 842 24.86 10.1 50.2 64 3.6 38.6
08:30 1013 29.91 842 24.86 10.1 50.2 62 3.1 37.5
08:35 1013 29.91 842 24.86 10.3 50.6 60 3 37.3
08:40 1013 29.91 842 24.86 10.4 50.8 59 2.8 37.1
08:45 1013 29.91 842 24.86 10.1 50.2 58 2.4 36.3
08:50 1013 29.91 842 24.86 9.7 49.5 60 2.3 36.2
08:55 1013 29.91 842 24.86 10.3 50.5 56 2 35.6
09:00 1013 29.91 842 24.86 10.3 50.6 57 2.2 36
09:05 1013 29.91 842 24.86 10.9 51.6 55 2.4 36.2
09:10 1012 29.88 842 24.86 11 51.8 54 2.2 36
09:15 1012 29.88 842 24.86 11.2 52.2 54 2.3 36.1
09:20 1012 29.88 842 24.86 11.1 52 55 2.4 36.3
09:25 1012 29.88 842 24.86 11.3 52.4 53 2.3 36.1
09:30 1012 29.88 842 24.86 11.6 52.8 54 2.6 36.6
09:35 1012 29.88 842 24.86 11.5 52.7 53 2.2 36
09:40 1012 29.88 842 24.86 11.4 52.4 52 2 35.6
09:45 1012 29.88 842 24.86 11.7 53.1 50 1.7 35.1
09:50 1012 29.88 841 24.83 11 51.8 51 1.3 34.3
09:55 1012 29.88 841 24.83 10.7 51.2 52 1.2 34.1
10:00 1012 29.88 842 24.86 10.4 50.6 51 0.7 33.3
10:05 1012 29.88 842 24.86 10.3 50.6 53 1.3 34.3
10:10 1012 29.88 841 24.83 11 51.7 50 1.1 33.9
10:15 1012 29.88 841 24.83 11.3 52.4 51 1.6 34.8
10:20 1012 29.88 841 24.83 11.6 52.8 50 1.6 34.8
10:25 1012 29.88 841 24.83 10.6 51.1 52 1.1 34
10:30 1012 29.88 841 24.83 10.6 51.2 52 1.2 34.1
10:35 1012 29.88 841 24.83 10.7 51.2 53 1.5 34.7
10:40 1012 29.88 841 24.83 11.5 52.7 51 1.8 35.3
10:45 1012 29.88 841 24.83 12.1 53.8 48 1.6 34.8
10:50 1012 29.88 841 24.83 12.2 54 47 1.2 34.2
10:55 1012 29.88 841 24.83 12.6 54.6 47 1.7 35.1
11:00 1012 29.88 841 24.83 12.9 55.3 46 1.6 34.9
11:05 1012 29.88 841 24.83 13.8 56.8 42 1.2 34.1
11:10 1012 29.88 841 24.83 13.9 57.1 42 1.4 34.5
11:15 1012 29.88 841 24.83 13.9 57 43 1.6 34.9
11:20 1012 29.88 841 24.83 14 57.1 40 0.6 33.1
11:25 1012 29.88 841 24.83 14.2 57.5 37 -0.2 31.6
11:30 1012 29.88 841 24.83 14.4 57.9 38 0.2 32.4
11:35 1012 29.88 841 24.83 14.6 58.3 38 0.6 33.1
11:40 1011 29.85 841 24.83 14.4 57.9 39 0.5 33
11:45 1011 29.85 841 24.83 14.6 58.3 40 1.1 34
11:50 1011 29.85 840 24.81 14.7 58.5 40 1.3 34.3
11:55 1011 29.85 840 24.81 14.6 58.2 38 0.6 33.1
12:00 1011 29.85 840 24.81 14.9 58.8 34 -0.7 30.8
12:05 1011 29.85 840 24.81 15.4 59.8 34 -0.2 31.7
12:10 1011 29.85 840 24.81 15.5 59.8 33 -0.7 30.8
12:15 1011 29.85 840 24.81 15.6 60 28 -2.6 27.2
12:20 1011 29.85 840 24.81 15.7 60.2 31 -1.4 29.5
12:25 1011 29.85 840 24.81 16 60.8 28 -2.2 28.1
12:30 1011 29.85 840 24.81 15.7 60.3 30 -1.6 29
12:35 1011 29.85 840 24.81 15.7 60.2 30 -2 28.4
12:40 1010 29.83 840 24.81 15.8 60.5 31 -1.2 29.8
12:45 1010 29.83 840 24.81 16.3 61.4 31 -0.5 31
12:50 1010 29.83 840 24.81 16.4 61.5 31 -0.6 31
12:55 1010 29.83 839 24.78 16.7 62 28 -1.7 29
13:00 1010 29.83 839 24.78 16.6 62 27 -2.3 27.9
13:05 1010 29.83 839 24.78 16.7 62.1 30 -0.6 30.9
13:10 1010 29.83 839 24.78 16.9 62.5 28 -1.5 29.2
13:15 1010 29.83 839 24.78 16.5 61.7 28 -1.8 28.7
13:20 1010 29.83 839 24.78 16.5 61.6 27 -2.5 27.6
13:25 1010 29.83 839 24.78 16.3 61.4 26 -3 26.7
13:30 1010 29.83 839 24.78 16.5 61.6 27 -2.3 27.8
13:35 1010 29.83 839 24.78 16.9 62.4 26 -2.7 27.2
13:40 1010 29.83 839 24.78 16.7 62.1 26 -3 26.6
13:45 1010 29.83 839 24.78 17 62.7 24 -3.6 25.5
13:50 1009 29.8 839 24.78 17.1 62.9 25 -2.8 27
13:55 1009 29.8 839 24.78 17.3 63.1 26 -2.2 28
14:00 1009 29.8 839 24.78 17.2 62.9 25 -3.1 26.4
14:05 1009 29.8 839 24.78 17.6 63.8 24 -3.2 26.3
14:10 1009 29.8 838 24.75 18.1 64.5 26 -1.9 28.6
14:15 1009 29.8 838 24.75 18.1 64.5 26 -1.8 28.8
14:20 1009 29.8 838 24.75 18.2 64.7 24 -2.8 27
14:25 1009 29.8 838 24.75 18 64.3 24 -2.5 27.4
14:30 1009 29.8 838 24.75 17.9 64.2 24 -2.6 27.3
14:35 1009 29.8 838 24.75 17.9 64.2 26 -1.9 28.6
14:40 1009 29.8 838 24.75 18.2 64.8 24 -2.4 27.6
14:45 1009 29.8 838 24.75 18.3 65 23 -2.8 27
14:50 1009 29.8 838 24.75 18.4 65.1 25 -1.9 28.6
14:55 1009 29.8 838 24.75 18.7 65.7 25 -1.6 29
15:00 1008 29.77 838 24.75 18.7 65.7 25 -1.8 28.8
15:05 1008 29.77 838 24.75 18.6 65.4 25 -1.9 28.6
15:10 1008 29.77 837 24.72 18.6 65.4 26 -1.2 29.9
15:15 1008 29.77 837 24.72 18.8 65.8 24 -2.3 27.8
15:20 1008 29.77 837 24.72 18.9 65.9 24 -2.3 27.9
15:25 1008 29.77 837 24.72 18.7 65.6 25 -1.5 29.4
15:30 1008 29.77 837 24.72 19 66.2 24 -1.8 28.8
15:35 1008 29.77 837 24.72 18.8 65.8 25 -1.4 29.5
15:40 1008 29.77 837 24.72 18.7 65.7 26 -1 30.1
15:45 1008 29.77 837 24.72 18.8 65.8 25 -1.5 29.3
15:50 1008 29.77 837 24.72 18.7 65.7 26 -1.1 30
15:55 1008 29.77 837 24.72 18.4 65.2 26 -1.3 29.6
16:00 1008 29.77 837 24.72 18.4 65.1 27 -0.9 30.4
16:05 1008 29.77 837 24.72 18.3 65 26 -1.5 29.3
16:10 1008 29.77 837 24.72 18 64.3 26 -1.6 29.1
16:15 1008 29.77 837 24.72 17.8 64 27 -1.3 29.7
16:20 1008 29.77 837 24.72 18.6 65.5 25 -1.4 29.4
16:25 1008 29.77 837 24.72 18.5 65.3 26 -1.3 29.7
16:30 1008 29.77 837 24.72 17.6 63.6 27 -1.5 29.3
16:35 1007 29.74 837 24.72 17.7 63.9 27 -1.4 29.5
16:40 1007 29.74 837 24.72 17.6 63.7 27 -1.3 29.6
16:45 1007 29.74 837 24.72 17.3 63.2 27 -1.5 29.2
16:50 1007 29.74 836 24.69 17.4 63.4 27 -1.5 29.3
16:55 1007 29.74 836 24.69 17.8 64 27 -1.3 29.7
17:00 1007 29.74 836 24.69 17.6 63.6 28 -1.2 29.9
17:05 1007 29.74 836 24.69 17.4 63.3 28 -1.4 29.5
17:10 1007 29.74 836 24.69 17.1 62.7 28 -1.3 29.6
17:15 1007 29.74 836 24.69 16.9 62.5 29 -1.1 29.9
17:20 1007 29.74 836 24.69 17.1 62.8 28 -1.4 29.5
17:25 1007 29.74 836 24.69 16.8 62.2 29 -1.4 29.6
17:30 1007 29.74 836 24.69 17 62.5 29 -1.2 29.9
17:35 1007 29.74 836 24.69 17.2 63 27 -1.9 28.6
17:40 1007 29.74 836 24.69 16.8 62.3 29 -1.4 29.4
17:45 1007 29.74 836 24.69 17.4 63.3 28 -1.1 30
17:50 1007 29.74 836 24.69 17.4 63.3 28 -1.2 29.9
17:55 1007 29.74 836 24.69 17.3 63.2 29 -0.6 31
18:00 1007 29.74 836 24.69 17.8 64 29 -0.6 30.9
18:05 1007 29.74 836 24.69 17.4 63.4 28 -1.2 29.8
18:10 1007 29.74 836 24.69 17 62.5 28 -1.5 29.4
18:15 1007 29.74 836 24.69 17.1 62.8 29 -1.1 30
18:20 1007 29.74 836 24.69 17.4 63.4 28 -1.3 29.6
18:25 1007 29.74 836 24.69 17.1 62.7 27 -2.1 28.3
18:30 1007 29.74 836 24.69 16.8 62.3 29 -1.4 29.4
18:35 1007 29.74 836 24.69 17.2 62.9 28 -1.5 29.4
18:40 1007 29.74 836 24.69 17.5 63.4 28 -1.3 29.7
18:45 1007 29.74 836 24.69 17.6 63.6 28 -1.2 29.8
18:50 1007 29.74 836 24.69 17.6 63.7 29 -0.4 31.3
18:55 1007 29.74 836 24.69 17.1 62.7 37 2.5 36.5
19:00 1007 29.74 836 24.69 16.4 61.4 42 3.4 38.1
19:05 1007 29.74 836 24.69 16.1 60.9 43 3.6 38.4
19:10 1007 29.74 836 24.69 15.7 60.3 44 3.7 38.6
19:15 1007 29.74 836 24.69 15.2 59.4 46 3.7 38.7
19:20 1007 29.74 836 24.69 14.9 58.9 46 3.5 38.3
19:25 1007 29.74 836 24.69 14.9 58.8 46 3.4 38.2
19:30 1007 29.74 836 24.69 14.9 58.8 44 3 37.4
19:35 1007 29.74 836 24.69 14.8 58.6 45 3.1 37.5
19:40 1007 29.74 836 24.69 14.5 58.1 48 3.8 38.8
19:45 1007 29.74 836 24.69 14.3 57.7 51 4.4 39.9
19:50 1007 29.74 836 24.69 14 57.1 53 4.7 40.4
19:55 1007 29.74 836 24.69 14.1 57.3 54 4.9 40.9
20:00 1007 29.74 836 24.69 13.8 56.9 50 3.7 38.7
20:05 1007 29.74 836 24.69 13.8 56.9 52 4.2 39.6
20:10 1007 29.74 836 24.69 13.7 56.7 53 4.5 40.1
20:15 1007 29.74 836 24.69 13.5 56.3 54 4.5 40.1
20:20 1007 29.74 836 24.69 13.2 55.8 56 4.6 40.3
20:25 1007 29.74 836 24.69 13.1 55.5 56 4.6 40.3
20:30 1007 29.74 836 24.69 12.9 55.2 58 4.9 40.8
20:35 1007 29.74 836 24.69 12.7 54.9 58 4.9 40.7
20:40 1007 29.74 836 24.69 12.8 55.1 57 4.7 40.4
20:45 1007 29.74 836 24.69 12.8 55 58 4.8 40.7
20:50 1007 29.74 836 24.69 12.6 54.7 60 5.2 41.3
20:55 1007 29.74 837 24.72 12.7 54.8 59 5 40.9
21:00 1007 29.74 837 24.72 12.4 54.3 63 5.7 42.2
21:05 1007 29.74 836 24.69 12.1 53.8 64 5.6 42.1
21:10 1007 29.74 837 24.72 12 53.6 66 5.8 42.5
21:15 1007 29.74 837 24.72 12 53.5 66 5.9 42.7
21:20 1007 29.74 836 24.69 12 53.6 66 5.9 42.5
21:25 1007 29.74 836 24.69 12 53.6 65 5.7 42.3
21:30 1007 29.74 837 24.72 11.9 53.5 66 5.9 42.5
21:35 1007 29.74 837 24.72 11.8 53.2 68 6.1 42.9
21:40 1007 29.74 837 24.72 11.7 53 69 6.2 43.2
21:45 1007 29.74 837 24.72 11.5 52.7 70 6.2 43.2
21:50 1007 29.74 837 24.72 11.5 52.7 70 6.1 43.1
21:55 1007 29.74 837 24.72 11.4 52.5 70 6.1 43
22:00 1007 29.74 837 24.72 11.4 52.5 70 6.2 43.2
22:05 1007 29.74 837 24.72 11.4 52.6 71 6.3 43.4
22:10 1007 29.74 837 24.72 11.4 52.6 71 6.5 43.6
22:15 1007 29.74 837 24.72 11.5 52.6 71 6.4 43.5
22:20 1007 29.74 837 24.72 11.5 52.7 71 6.4 43.5
22:25 1007 29.74 837 24.72 11.2 52.1 73 6.5 43.7
22:30 1007 29.74 837 24.72 10.9 51.6 73 6.4 43.5
22:35 1007 29.74 837 24.72 10.8 51.5 74 6.3 43.4
22:40 1007 29.74 837 24.72 11 51.8 73 6.3 43.3
22:45 1007 29.74 836 24.69 11 51.9 72 6.3 43.3
22:50 1007 29.74 836 24.69 10.9 51.7 73 6.3 43.3
22:55 1007 29.74 836 24.69 11 51.8 72 6.2 43.2
23:00 1007 29.74 836 24.69 11.1 51.9 72 6.2 43.2
23:05 1007 29.74 836 24.69 11 51.9 72 6.2 43.2
23:10 1007 29.74 836 24.69 11.1 52 72 6.2 43.2
23:15 1007 29.74 836 24.69 11.1 52 73 6.5 43.7
23:20 1007 29.74 836 24.69 10.7 51.2 77 6.7 44.1
23:25 1007 29.74 836 24.69 10.2 50.4 79 6.7 44.1
23:30 1007 29.74 836 24.69 10 50.1 82 7.1 44.7
23:35 1007 29.74 836 24.69 9.9 49.9 83 7.3 45.1
23:40 1007 29.74 836 24.69 9.8 49.6 83 7.1 44.8
23:45 1007 29.74 836 24.69 9.9 49.7 83 7.1 44.9
23:50 1007 29.74 836 24.69 10.1 50.1 83 7.3 45.1
23:55 1007 29.74 836 24.69 10.2 50.3 82 7.3 45.2
24:00 1007 29.74 836 24.69 9.8 49.6 85 7.4 45.3